»·PEaware :: WAT306 KHCR-KMMH

WAT306 :: KHCR-KMMH

FLIGHT INFORMATION

Flight Status: Arrived
Operator:
Walker Air Transport
More flights by this operator :: More flights under this callsign
Pilot: Ethan S. (29221)
Aircraft: SOCATA TBM-900
(TBM9)
More flights by this aircraft type
Origin: KHCR Heber Valley
United States
Destination: KMMH Mammoth Yosemite
United States
More flights between these airports :: More routes between these airports
Route: FFU GAROT JOPER
File this flight plan on PilotEdge
Remarks:
Altitude:
(Current/Filed)
26,000ft
Speed:
(Current/Filed)
315kts
Departed: 16-Nov-20 07:51 PM
Arrived: 16-Nov-20 09:20 PM
Distance/Time
Traveled:
385nm/1:28
Distance/Time
To Go:
Arrived

Flight Plot

Page will automatically refresh every two minutes.

Flight plan parsing failed; only flown route is shown


Map Options




Map Legend


Flown Route
Filed Route
Departure Airport
Arrival Airport
Navaid (VOR, NDB)
Fix

Horizontal Profiles

Position Reports

Time Latitude Longitude Heading Altitude Ground
Speed
16-Nov-20 19:43 40.482548 -111.424370 229 5622ft 0kts
16-Nov-20 19:44 40.482548 -111.424370 229 5622ft 0kts
16-Nov-20 19:45 40.482548 -111.424370 229 5622ft 0kts
16-Nov-20 19:46 40.483583 -111.424694 44 5620ft 9kts
16-Nov-20 19:47 40.486003 -111.420966 49 5628ft 14kts
16-Nov-20 19:48 40.487308 -111.419004 26 5631ft 0kts
16-Nov-20 19:49 40.487308 -111.419004 26 5631ft 0kts
16-Nov-20 19:50 40.485733 -111.422701 230 5624ft 73kts
16-Nov-20 19:51 40.466385 -111.455255 231 7772ft 111kts
16-Nov-20 19:52 40.448601 -111.486493 231 10157ft 110kts
16-Nov-20 19:53 40.431692 -111.519869 240 12572ft 125kts
16-Nov-20 19:54 40.414619 -111.565638 241 14939ft 144kts
16-Nov-20 19:55 40.396885 -111.613450 241 17701ft 145kts
16-Nov-20 19:56 40.378872 -111.661948 241 20139ft 148kts
16-Nov-20 19:57 40.360324 -111.711833 241 22559ft 155kts
16-Nov-20 19:58 40.337176 -111.773908 242 23380ft 230kts
16-Nov-20 19:59 40.305564 -111.858512 242 23344ft 265kts
16-Nov-20 20:00 40.270093 -111.947161 226 23322ft 270kts
16-Nov-20 20:01 40.216194 -112.020984 226 23337ft 270kts
16-Nov-20 20:02 40.172238 -112.081109 228 26314ft 203kts
16-Nov-20 20:03 40.125040 -112.145591 227 26350ft 261kts
16-Nov-20 20:04 40.070736 -112.219504 227 26334ft 277kts
16-Nov-20 20:05 40.013794 -112.296849 227 26327ft 280kts
16-Nov-20 20:06 39.957299 -112.373391 227 26321ft 277kts
16-Nov-20 20:08 39.901212 -112.449194 227 26317ft 276kts
16-Nov-20 20:09 39.845427 -112.524400 227 26319ft 277kts
16-Nov-20 20:10 39.788522 -112.600916 227 26318ft 278kts
16-Nov-20 20:11 39.731741 -112.677076 226 26323ft 278kts
16-Nov-20 20:12 39.674469 -112.753717 226 26322ft 279kts
16-Nov-20 20:13 39.616946 -112.830484 226 26321ft 279kts
16-Nov-20 20:14 39.559505 -112.906948 226 26320ft 279kts
16-Nov-20 20:15 39.501915 -112.983418 226 26320ft 279kts
16-Nov-20 20:16 39.445240 -113.058485 226 26319ft 279kts
16-Nov-20 20:17 39.388603 -113.133304 226 26319ft 279kts
16-Nov-20 20:18 39.331703 -113.208288 226 26318ft 279kts
16-Nov-20 20:19 39.288418 -113.295982 250 26321ft 279kts
16-Nov-20 20:20 39.263382 -113.396735 250 26314ft 279kts
16-Nov-20 20:21 39.238045 -113.497760 250 26310ft 279kts
16-Nov-20 20:22 39.212812 -113.597969 250 26308ft 279kts
16-Nov-20 20:23 39.187560 -113.697815 249 26311ft 279kts
16-Nov-20 20:24 39.162215 -113.797637 249 26315ft 279kts
16-Nov-20 20:25 39.136756 -113.897512 249 26333ft 279kts
16-Nov-20 20:26 39.111371 -113.996660 249 26352ft 279kts
16-Nov-20 20:26 39.090039 -114.079683 249 26354ft 279kts
16-Nov-20 20:27 39.064310 -114.179451 249 26354ft 279kts
16-Nov-20 20:28 39.038512 -114.279089 249 26353ft 279kts
16-Nov-20 20:29 39.012458 -114.379331 249 26353ft 280kts
16-Nov-20 20:31 38.981879 -114.496453 249 26352ft 281kts
16-Nov-20 20:31 38.959697 -114.581057 249 26351ft 282kts
16-Nov-20 20:32 38.933024 -114.682406 248 26355ft 283kts
16-Nov-20 20:33 38.906081 -114.784380 248 26354ft 285kts
16-Nov-20 20:34 38.878841 -114.887065 248 26359ft 287kts
16-Nov-20 20:35 38.851512 -114.989678 248 26358ft 287kts
16-Nov-20 20:36 38.823906 -115.092904 248 26358ft 287kts
16-Nov-20 20:37 38.796255 -115.195878 248 26357ft 287kts
16-Nov-20 20:38 38.768603 -115.298417 248 26357ft 286kts
16-Nov-20 20:39 38.741135 -115.399896 248 26356ft 286kts
16-Nov-20 20:40 38.713706 -115.500826 247 26356ft 287kts
16-Nov-20 20:41 38.686228 -115.601542 247 26356ft 287kts
16-Nov-20 20:42 38.658695 -115.702057 247 26357ft 288kts
16-Nov-20 20:43 38.630896 -115.803158 247 26340ft 288kts
16-Nov-20 20:44 38.603001 -115.904210 247 26312ft 288kts
16-Nov-20 20:45 38.575090 -116.004920 247 26290ft 288kts
16-Nov-20 20:46 38.547149 -116.105366 247 26283ft 288kts
16-Nov-20 20:47 38.519174 -116.205544 247 26283ft 288kts
16-Nov-20 20:48 38.491154 -116.305500 247 26282ft 288kts
16-Nov-20 20:49 38.459829 -116.404807 244 26282ft 287kts
16-Nov-20 20:50 38.427611 -116.502508 244 26281ft 287kts
16-Nov-20 20:51 38.394936 -116.601241 244 26281ft 286kts
16-Nov-20 20:52 38.362005 -116.700408 243 26283ft 287kts
16-Nov-20 20:53 38.328341 -116.801447 243 26283ft 287kts
16-Nov-20 20:54 38.294526 -116.902542 243 24755ft 292kts
16-Nov-20 20:55 38.260584 -117.003699 243 23152ft 294kts
16-Nov-20 20:56 38.226260 -117.105614 243 21542ft 296kts
16-Nov-20 20:57 38.191427 -117.208681 243 19922ft 297kts
16-Nov-20 20:58 38.155737 -117.313931 243 18268ft 297kts
16-Nov-20 20:59 38.119648 -117.419973 243 16598ft 295kts
16-Nov-20 21:00 38.085613 -117.519684 242 15965ft 264kts
16-Nov-20 21:01 38.054086 -117.611671 242 15969ft 254kts
16-Nov-20 21:02 38.023308 -117.701187 242 15960ft 253kts
16-Nov-20 21:03 37.992408 -117.790799 242 15941ft 253kts
16-Nov-20 21:04 37.961381 -117.880508 242 15913ft 253kts
16-Nov-20 21:05 37.931086 -117.967838 242 15888ft 252kts
16-Nov-20 21:06 37.900121 -118.056839 242 15887ft 252kts
16-Nov-20 21:07 37.869063 -118.145832 242 15892ft 253kts
16-Nov-20 21:08 37.838031 -118.234492 242 15891ft 253kts
16-Nov-20 21:09 37.806832 -118.323359 242 15891ft 253kts
16-Nov-20 21:10 37.776643 -118.409101 242 15927ft 252kts
16-Nov-20 21:11 37.746604 -118.494173 242 15965ft 252kts
16-Nov-20 21:12 37.716545 -118.579032 242 15705ft 261kts
16-Nov-20 21:13 37.680532 -118.654280 202 14742ft 226kts
16-Nov-20 21:14 37.627001 -118.685875 202 13166ft 187kts
16-Nov-20 21:15 37.594251 -118.725308 264 10793ft 155kts
16-Nov-20 21:16 37.604817 -118.770026 294 8051ft 118kts
16-Nov-20 21:17 37.614048 -118.802560 292 7551ft 92kts
16-Nov-20 21:18 37.622327 -118.832423 289 7086ft 69kts
16-Nov-20 21:19 37.624772 -118.838238 288 7103ft 9kts
16-Nov-20 21:20 37.626159 -118.841873 18 7113ft 6kts
16-Nov-20 21:21 37.627017 -118.842686 289 7114ft 0kts
16-Nov-20 21:22 37.627017 -118.842686 289 7114ft 0kts
16-Nov-20 21:23 37.627017 -118.842686 289 7114ft 0kts

Navigation Log

Ident Type
Flight plan parsing failed, navigation log unavailable